createdAt,value
2022-12-11T00:02:24.561Z,25.33
2022-12-11T00:05:26.152Z,27.85
2022-12-11T00:08:27.723Z,23.65
2022-12-11T00:11:29.325Z,23.90
2022-12-11T00:14:31.910Z,21.20
2022-12-11T00:17:33.472Z,22.20
2022-12-11T00:20:35.535Z,27.43
2022-12-11T00:23:38.621Z,20.95
2022-12-11T00:26:40.250Z,26.50
2022-12-11T00:29:41.786Z,24.13
2022-12-11T00:32:44.138Z,22.92
2022-12-11T00:35:47.154Z,22.77
2022-12-11T00:38:49.431Z,19.73
2022-12-11T00:41:50.925Z,24.27
2022-12-11T00:44:52.487Z,21.73
2022-12-11T00:47:54.421Z,21.15
2022-12-11T00:50:55.974Z,20.63
2022-12-11T00:53:57.518Z,24.55
2022-12-11T00:56:59.195Z,24.63
2022-12-11T01:00:00.777Z,24.58
2022-12-11T01:03:02.665Z,27.42
2022-12-11T01:06:05.250Z,22.77
2022-12-11T01:09:25.641Z,24.08
2022-12-11T01:12:28.603Z,22.20
2022-12-11T01:15:41.526Z,23.83
2022-12-11T01:18:43.622Z,24.65
2022-12-11T01:21:45.144Z,23.00
2022-12-11T01:24:46.710Z,26.25
2022-12-11T01:27:50.790Z,24.58
2022-12-11T01:30:52.415Z,26.42
2022-12-11T01:33:55.466Z,22.30
2022-12-11T01:36:57.141Z,24.50
2022-12-11T01:39:58.771Z,22.75
2022-12-11T01:43:00.305Z,24.67
2022-12-11T01:46:01.936Z,23.73
2022-12-11T01:49:15.300Z,23.88
2022-12-11T01:52:21.342Z,27.13
2022-12-11T01:55:23.332Z,24.38
2022-12-11T01:58:29.727Z,24.02
2022-12-11T02:01:36.869Z,19.88
2022-12-11T02:04:40.079Z,21.60
2022-12-11T02:07:48.668Z,23.10
2022-12-11T02:11:04.187Z,21.83
2022-12-11T02:14:17.795Z,22.03
2022-12-11T02:17:25.993Z,22.83
2022-12-11T02:20:37.575Z,27.23
2022-12-11T02:23:47.214Z,23.90
2022-12-11T02:27:18.208Z,23.67
2022-12-11T02:30:19.904Z,23.92
2022-12-11T02:33:29.891Z,24.75
2022-12-11T02:36:35.809Z,23.80
2022-12-11T02:39:40.541Z,23.27
2022-12-11T02:42:44.316Z,27.98
2022-12-11T02:45:46.914Z,25.30
2022-12-11T02:48:51.280Z,23.90
2022-12-11T02:51:56.423Z,22.98
2022-12-11T02:55:00.903Z,25.00
2022-12-11T02:58:08.999Z,25.98
2022-12-11T03:01:10.599Z,24.48
2022-12-11T03:04:12.253Z,23.15
2022-12-11T03:07:27.986Z,23.40
2022-12-11T03:10:29.663Z,23.38
2022-12-11T03:13:31.618Z,21.75
2022-12-11T03:16:36.947Z,25.33
2022-12-11T03:19:50.390Z,25.00
2022-12-11T03:23:03.194Z,21.23
2022-12-11T03:26:08.912Z,25.70
2022-12-11T03:29:19.242Z,23.20
2022-12-11T03:32:25.603Z,27.73
2022-12-11T03:35:44.036Z,24.23
2022-12-11T03:39:15.272Z,22.65
2022-12-11T03:42:19.174Z,22.20
2022-12-11T03:45:22.585Z,23.63
2022-12-11T03:48:30.559Z,22.47
2022-12-11T03:51:34.079Z,23.52
2022-12-11T03:54:36.592Z,26.33
2022-12-11T03:57:38.402Z,25.27
2022-12-11T04:00:39.982Z,24.60
2022-12-11T04:03:41.574Z,22.15
2022-12-11T04:06:43.161Z,21.23
2022-12-11T04:09:44.692Z,21.33
2022-12-11T04:12:46.245Z,22.75
2022-12-11T04:15:47.799Z,19.50
2022-12-11T04:19:07.809Z,20.43
2022-12-11T04:22:32.101Z,22.48
2022-12-11T04:25:33.652Z,20.35
2022-12-11T04:28:35.856Z,22.23
2022-12-11T04:31:37.415Z,20.40
2022-12-11T04:34:40.734Z,20.33
2022-12-11T04:37:42.655Z,22.15
2022-12-11T04:40:44.590Z,22.13
2022-12-11T04:43:46.233Z,19.90
2022-12-11T04:46:47.840Z,21.80
2022-12-11T04:49:49.392Z,19.53
2022-12-11T04:52:50.950Z,20.15
2022-12-11T04:55:52.586Z,18.73
2022-12-11T04:58:54.111Z,20.77
2022-12-11T05:01:55.718Z,21.90
2022-12-11T05:04:57.287Z,20.08
2022-12-11T05:07:58.871Z,22.58
2022-12-11T05:11:03.278Z,21.40
2022-12-11T05:14:05.433Z,22.80
2022-12-11T05:17:06.965Z,20.67
2022-12-11T05:20:09.657Z,23.70
2022-12-11T05:23:11.477Z,24.83
2022-12-11T05:26:17.052Z,25.10
2022-12-11T05:29:18.623Z,22.77
2022-12-11T05:32:20.150Z,22.33
2022-12-11T05:35:21.978Z,23.42
2022-12-11T05:38:24.456Z,20.38
2022-12-11T05:41:29.855Z,24.30
2022-12-11T05:44:31.362Z,24.40
2022-12-11T05:47:32.978Z,20.90
2022-12-11T05:50:34.533Z,23.80
2022-12-11T05:53:37.511Z,22.33
2022-12-11T05:56:39.076Z,24.55
2022-12-11T05:59:41.322Z,22.83
2022-12-11T06:02:43.039Z,21.17
2022-12-11T06:05:45.112Z,26.00
2022-12-11T06:08:49.885Z,24.88
2022-12-11T06:11:51.434Z,23.52
2022-12-11T06:14:53.734Z,22.35
2022-12-11T06:17:55.373Z,26.17
2022-12-11T06:20:57.050Z,21.43
2022-12-11T06:24:01.099Z,21.33
2022-12-11T06:27:02.678Z,23.20
2022-12-11T06:30:04.709Z,22.60
2022-12-11T06:33:06.853Z,25.95
2022-12-11T06:36:16.515Z,22.77
2022-12-11T06:39:18.062Z,25.40
2022-12-11T06:42:19.618Z,22.83
2022-12-11T06:45:21.168Z,22.00
2022-12-11T06:48:22.720Z,23.92
2022-12-11T06:51:24.308Z,23.93
2022-12-11T06:54:27.446Z,25.27
2022-12-11T06:57:29.096Z,24.17
2022-12-11T07:00:31.141Z,25.80
2022-12-11T07:03:33.533Z,25.30
2022-12-11T07:06:35.592Z,26.80
2022-12-11T07:09:39.968Z,24.83
2022-12-11T07:12:41.530Z,25.05
2022-12-11T07:15:43.084Z,26.13
2022-12-11T07:18:48.328Z,25.08
2022-12-11T07:21:50.079Z,24.87
2022-12-11T07:24:51.640Z,27.02
2022-12-11T07:27:53.193Z,26.65
2022-12-11T07:31:05.714Z,26.83
2022-12-11T07:34:07.659Z,26.50
2022-12-11T07:37:09.209Z,29.05
2022-12-11T07:40:11.095Z,24.95
2022-12-11T07:43:12.726Z,23.83
2022-12-11T07:46:21.601Z,27.55
2022-12-11T07:49:23.171Z,26.75
2022-12-11T07:52:24.761Z,26.97
2022-12-11T07:55:26.321Z,26.08
2022-12-11T07:58:28.563Z,27.48
2022-12-11T08:01:31.692Z,25.67
2022-12-11T08:04:33.641Z,25.40
2022-12-11T08:07:35.849Z,25.80
2022-12-11T08:10:37.430Z,26.60
2022-12-11T08:13:40.253Z,23.52
2022-12-11T08:16:44.133Z,26.67
2022-12-11T08:19:45.762Z,28.45
2022-12-11T08:22:47.421Z,26.07
2022-12-11T08:25:48.978Z,24.15
2022-12-11T08:28:51.101Z,28.40
2022-12-11T08:31:52.621Z,23.40
2022-12-11T08:34:54.215Z,26.17
2022-12-11T08:37:55.767Z,33.63
2022-12-11T08:40:57.438Z,28.00
2022-12-11T08:44:00.420Z,40.33
2022-12-11T08:47:02.077Z,38.33
2022-12-11T08:50:04.446Z,30.15
2022-12-11T08:53:06.004Z,32.60
2022-12-11T08:56:10.948Z,27.25
2022-12-11T08:59:12.604Z,32.95
2022-12-11T09:02:14.412Z,28.93
2022-12-11T09:05:16.215Z,29.70
2022-12-11T09:08:18.035Z,26.58
2022-12-11T09:11:25.739Z,27.67
2022-12-11T09:14:27.774Z,23.27
2022-12-11T09:17:29.377Z,24.70
2022-12-11T09:20:30.904Z,24.63
2022-12-11T09:23:33.316Z,28.47
2022-12-11T09:26:34.929Z,28.08
2022-12-11T09:29:36.478Z,22.90
2022-12-11T09:32:38.007Z,24.80
2022-12-11T09:35:39.626Z,25.45
2022-12-11T09:38:43.999Z,23.10
2022-12-11T09:41:53.049Z,28.75
2022-12-11T09:44:58.811Z,25.20
2022-12-11T09:48:01.962Z,29.10
2022-12-11T09:51:15.494Z,25.13
2022-12-11T09:54:17.976Z,26.60
2022-12-11T09:57:38.000Z,23.30
2022-12-11T10:01:14.913Z,17.75
2022-12-11T10:05:00.377Z,19.00
2022-12-11T10:08:20.503Z,25.20
2022-12-11T10:11:45.694Z,21.40
2022-12-11T10:15:12.501Z,23.25
2022-12-11T10:18:18.078Z,18.55
2022-12-11T10:21:20.234Z,19.63
2022-12-11T10:25:12.593Z,17.42
2022-12-11T10:28:15.337Z,19.17
2022-12-11T10:31:30.775Z,18.33
2022-12-11T10:34:40.066Z,22.65
2022-12-11T10:37:41.645Z,20.63
2022-12-11T10:40:47.068Z,20.98
2022-12-11T10:43:50.451Z,21.25
2022-12-11T10:47:15.395Z,18.63
2022-12-11T10:50:25.956Z,19.70
2022-12-11T10:53:29.199Z,19.85
2022-12-11T10:56:34.015Z,20.23
2022-12-11T10:59:45.134Z,15.27
2022-12-11T11:02:46.759Z,15.20
2022-12-11T11:05:50.573Z,13.50
2022-12-11T11:08:55.127Z,16.03
2022-12-11T11:11:56.784Z,16.45
2022-12-11T11:15:04.123Z,15.77
2022-12-11T11:18:23.871Z,14.82
2022-12-11T11:21:26.509Z,13.15
2022-12-11T11:24:34.897Z,12.98
2022-12-11T11:28:05.590Z,14.27
2022-12-11T11:31:10.167Z,18.10
2022-12-11T11:34:21.024Z,13.68
2022-12-11T11:37:30.399Z,16.17
2022-12-11T11:40:38.855Z,20.60
2022-12-11T11:43:47.709Z,14.50
2022-12-11T11:46:59.143Z,12.43
2022-12-11T11:50:21.283Z,14.43
2022-12-11T11:53:30.449Z,15.20
2022-12-11T11:56:37.422Z,16.95
2022-12-11T11:59:49.237Z,14.90
2022-12-11T12:02:55.923Z,16.43
2022-12-11T12:06:22.199Z,18.55
2022-12-11T12:09:43.531Z,15.43
2022-12-11T12:12:48.108Z,16.20
2022-12-11T12:16:01.355Z,19.13
2022-12-11T12:19:08.877Z,20.67
2022-12-11T12:22:46.729Z,23.85
2022-12-11T12:26:06.897Z,22.23
2022-12-11T12:29:35.185Z,19.52
2022-12-11T12:32:55.256Z,18.13
2022-12-11T12:36:16.029Z,18.47
2022-12-11T12:39:28.280Z,16.50
2022-12-11T12:42:35.969Z,16.58
2022-12-11T12:45:55.127Z,16.10
2022-12-11T12:49:02.371Z,17.63
2022-12-11T12:52:14.964Z,15.98
2022-12-11T12:55:28.950Z,15.30
2022-12-11T12:58:39.853Z,17.80
2022-12-11T13:01:48.311Z,18.42
2022-12-11T13:05:07.489Z,18.40
2022-12-11T13:08:10.922Z,15.17
2022-12-11T13:11:17.118Z,15.93
2022-12-11T13:14:18.854Z,16.08
2022-12-11T13:17:20.316Z,18.17
2022-12-11T13:20:25.066Z,20.52
2022-12-11T13:23:32.435Z,16.77
2022-12-11T13:26:34.364Z,20.90
2022-12-11T13:29:41.706Z,14.77
2022-12-11T13:32:54.981Z,19.35
2022-12-11T13:36:17.774Z,16.70
2022-12-11T13:39:30.602Z,17.27
2022-12-11T13:42:36.110Z,14.90
2022-12-11T13:45:48.836Z,15.68
2022-12-11T13:48:57.285Z,17.07
2022-12-11T13:52:00.218Z,14.90
2022-12-11T13:55:02.306Z,15.68
2022-12-11T13:58:03.884Z,15.00
2022-12-11T14:01:17.024Z,14.02
2022-12-11T14:04:21.855Z,14.43
2022-12-11T14:07:28.845Z,17.48
2022-12-11T14:10:35.187Z,15.77
2022-12-11T14:13:40.420Z,18.08
2022-12-11T14:16:42.501Z,15.18
2022-12-11T14:19:48.561Z,14.33
2022-12-11T14:22:50.760Z,16.08
2022-12-11T14:26:01.335Z,16.02
2022-12-11T14:29:03.118Z,20.33
2022-12-11T14:32:07.354Z,23.08
2022-12-11T14:35:26.453Z,17.98
2022-12-11T14:38:43.062Z,23.20
2022-12-11T14:41:57.379Z,22.17
2022-12-11T14:45:28.078Z,29.80
2022-12-11T14:48:36.051Z,24.67
2022-12-11T14:51:41.034Z,21.77
2022-12-11T14:54:51.213Z,21.23
2022-12-11T14:58:07.591Z,23.58
2022-12-11T15:01:28.292Z,25.48
2022-12-11T15:04:32.510Z,21.58
2022-12-11T15:07:34.263Z,21.08
2022-12-11T15:10:41.131Z,23.35
2022-12-11T15:13:58.623Z,22.17
2022-12-11T15:17:00.501Z,21.33
2022-12-11T15:20:22.549Z,23.98
2022-12-11T15:23:24.199Z,18.57
2022-12-11T15:26:44.233Z,18.40
2022-12-11T15:29:45.859Z,23.15
2022-12-11T15:32:48.752Z,21.08
2022-12-11T15:36:07.341Z,17.45
2022-12-11T15:39:09.430Z,20.70
2022-12-11T15:42:15.052Z,23.48
2022-12-11T15:45:22.208Z,20.33
2022-12-11T15:48:24.409Z,17.35
2022-12-11T15:51:27.440Z,18.45
2022-12-11T15:54:29.089Z,24.13
2022-12-11T15:57:30.826Z,21.92
2022-12-11T16:00:32.505Z,22.50
2022-12-11T16:03:34.061Z,29.60
2022-12-11T16:06:35.747Z,21.40
2022-12-11T16:09:37.345Z,21.17
2022-12-11T16:12:39.856Z,33.30
2022-12-11T16:15:47.742Z,21.23
2022-12-11T16:18:49.873Z,22.20
2022-12-11T16:21:52.534Z,47.58
2022-12-11T16:24:55.081Z,37.97
2022-12-11T16:27:58.074Z,23.98
2022-12-11T16:30:59.668Z,22.98
2022-12-11T16:34:01.284Z,22.75
2022-12-11T16:37:03.666Z,22.27
2022-12-11T16:40:06.653Z,24.70
2022-12-11T16:43:08.443Z,23.38
2022-12-11T16:46:10.081Z,25.10
2022-12-11T16:49:11.700Z,23.63
2022-12-11T16:52:17.578Z,23.38
2022-12-11T16:55:22.187Z,23.73
2022-12-11T16:58:23.847Z,21.70
2022-12-11T17:01:25.810Z,22.33
2022-12-11T17:04:28.629Z,21.52
2022-12-11T17:07:32.021Z,21.65
2022-12-11T17:10:33.946Z,26.92
2022-12-11T17:13:36.479Z,25.02
2022-12-11T17:16:38.294Z,24.27
2022-12-11T17:19:40.060Z,22.35
2022-12-11T17:22:42.123Z,23.48
2022-12-11T17:25:45.445Z,23.50
2022-12-11T17:28:47.617Z,19.55
2022-12-11T17:31:56.482Z,22.08
2022-12-11T17:34:58.041Z,23.53
2022-12-11T17:37:59.837Z,25.65
2022-12-11T17:41:05.894Z,20.73
2022-12-11T17:44:07.432Z,24.60
2022-12-11T17:47:11.918Z,23.65
2022-12-11T17:50:13.732Z,18.38
2022-12-11T17:53:16.326Z,21.80
2022-12-11T17:56:19.553Z,20.17
2022-12-11T17:59:21.142Z,24.15
2022-12-11T18:02:22.766Z,20.45
2022-12-11T18:05:25.193Z,22.30
2022-12-11T18:08:30.104Z,22.88
2022-12-11T18:11:32.826Z,27.23
2022-12-11T18:14:34.578Z,23.40
2022-12-11T18:17:36.170Z,21.63
2022-12-11T18:20:38.693Z,20.90
2022-12-11T18:23:40.379Z,24.25
2022-12-11T18:26:47.892Z,21.13
2022-12-11T18:29:49.722Z,21.98
2022-12-11T18:32:51.570Z,22.73
2022-12-11T18:35:53.153Z,26.33
2022-12-11T18:38:54.838Z,21.70
2022-12-11T18:42:24.270Z,21.88
2022-12-11T18:45:18.030Z,21.70
2022-12-11T18:48:19.599Z,21.45
2022-12-11T18:51:23.857Z,21.50
2022-12-11T18:54:25.456Z,21.83
2022-12-11T18:57:27.029Z,23.10
2022-12-11T19:00:28.605Z,25.20
2022-12-11T19:03:30.224Z,23.88
2022-12-11T19:06:33.302Z,31.63
2022-12-11T19:09:42.427Z,30.05
2022-12-11T19:12:49.755Z,24.13
2022-12-11T19:15:51.448Z,20.83
2022-12-11T19:18:53.070Z,20.30
2022-12-11T19:21:54.844Z,23.13
2022-12-11T19:24:56.392Z,25.42
2022-12-11T19:27:58.106Z,23.77
2022-12-11T19:31:48.551Z,24.02
2022-12-11T19:47:18.356Z,30.73
2022-12-11T19:50:47.544Z,31.97
2022-12-11T19:55:09.032Z,34.88
2022-12-11T20:03:43.433Z,25.80
2022-12-11T20:07:25.024Z,23.77
2022-12-11T20:10:57.991Z,25.90
2022-12-11T20:14:56.159Z,21.38
2022-12-11T20:26:50.275Z,22.35
2022-12-11T20:34:35.092Z,21.92
2022-12-11T20:37:49.745Z,24.00
2022-12-11T20:41:08.624Z,27.85
2022-12-11T20:44:33.563Z,30.83
2022-12-11T20:47:51.844Z,30.10
2022-12-11T20:51:22.421Z,27.27
2022-12-11T20:55:05.995Z,27.80
2022-12-11T20:58:55.411Z,27.05
2022-12-11T21:02:14.052Z,25.55
2022-12-11T21:05:48.409Z,26.97
2022-12-11T21:13:12.248Z,24.35
2022-12-11T21:16:46.569Z,23.27
2022-12-11T21:24:24.338Z,24.55
2022-12-11T21:27:55.149Z,29.13
2022-12-11T21:31:38.712Z,32.83
2022-12-11T21:35:06.330Z,27.75
2022-12-11T21:38:28.565Z,31.88
2022-12-11T21:54:02.112Z,31.08
2022-12-11T21:57:29.887Z,30.67
2022-12-11T22:04:45.154Z,29.50
2022-12-11T22:12:11.256Z,26.90
2022-12-11T22:15:41.681Z,22.00
2022-12-11T22:18:57.301Z,22.57
2022-12-11T22:22:54.895Z,22.98
2022-12-11T22:26:00.797Z,24.73
2022-12-11T22:29:02.875Z,24.77
2022-12-11T22:32:05.074Z,21.67
2022-12-11T22:35:07.346Z,23.05
2022-12-11T22:38:09.357Z,23.88
2022-12-11T22:41:22.893Z,24.70
2022-12-11T22:44:54.989Z,20.95
2022-12-11T22:48:12.694Z,20.98
2022-12-11T22:51:32.915Z,20.23
2022-12-11T22:54:44.453Z,22.40
2022-12-11T23:02:10.328Z,23.33
2022-12-11T23:05:24.646Z,20.77
2022-12-11T23:08:31.658Z,21.95
2022-12-11T23:11:49.331Z,20.65
2022-12-11T23:15:03.143Z,25.70
2022-12-11T23:18:11.889Z,21.98
2022-12-11T23:21:18.850Z,22.00
2022-12-11T23:31:48.685Z,25.30
2022-12-11T23:35:07.162Z,22.80
2022-12-11T23:38:23.989Z,21.63
2022-12-11T23:41:39.232Z,20.65
2022-12-11T23:44:58.232Z,23.45
2022-12-11T23:48:03.068Z,21.87
2022-12-11T23:51:32.035Z,21.45
2022-12-11T23:54:49.158Z,19.45
2022-12-11T23:58:00.354Z,21.40
